Time;durP1;ratioP1;P1;durP2;ratioP2;P2;SDS_P1;SDS_P2;PMS_P1;PMS_P2;Temp;Humidity;BMP_temperature;BMP_pressure;BME280_temperature;BME280_humidity;BME280_pressure;Samples;Min_cycle;Max_cycle;Signal;HPM_P1;HPM_P2
2021/01/17 00:00:55;;;;;;;9.30;6.60;;;-3.30;99.90;;;;;;4996172;28;20141;-88
2021/01/17 00:03:22;;;;;;;11.07;7.65;;;-3.30;99.90;;;;;;4995835;28;20054;-87
2021/01/17 00:05:49;;;;;;;8.50;6.25;;;-3.50;99.90;;;;;;4996093;28;20136;-88
2021/01/17 00:08:18;;;;;;;13.32;7.65;;;-3.60;99.90;;;;;;5013187;28;20058;-88
2021/01/17 00:10:45;;;;;;;16.60;8.13;;;-3.60;99.90;;;;;;4997634;28;20126;-88
2021/01/17 00:13:12;;;;;;;13.40;8.00;;;-3.70;99.90;;;;;;5000046;28;20048;-88
2021/01/17 00:15:38;;;;;;;13.60;7.93;;;-3.80;99.90;;;;;;4999960;28;20494;-88
2021/01/17 00:18:05;;;;;;;15.48;8.32;;;-3.90;99.90;;;;;;4999938;28;20046;-87
2021/01/17 00:20:31;;;;;;;15.63;7.80;;;-3.90;99.90;;;;;;5016859;28;20060;-88
2021/01/17 00:23:05;;;;;;;14.32;8.27;;;-3.90;99.90;;;;;;5017186;28;20148;-88
2021/01/17 00:25:33;;;;;;;11.68;8.05;;;-4.00;99.90;;;;;;4999867;28;20061;-88
2021/01/17 00:28:01;;;;;;;13.48;8.40;;;-4.10;99.90;;;;;;4999928;28;20149;-87
2021/01/17 00:30:32;;;;;;;11.57;7.82;;;-4.10;99.90;;;;;;4999643;28;20100;-87
2021/01/17 00:33:01;;;;;;;13.15;7.95;;;-4.40;99.90;;;;;;4999523;28;20060;-88
2021/01/17 00:35:29;;;;;;;10.32;7.38;;;-4.50;99.90;;;;;;4999702;28;20050;-86
2021/01/17 00:37:57;;;;;;;14.82;8.15;;;-4.50;99.90;;;;;;5017198;28;20054;-88
2021/01/17 00:40:24;;;;;;;14.65;8.00;;;-4.50;99.90;;;;;;5016635;28;20045;-88
2021/01/17 00:42:53;;;;;;;13.73;8.27;;;-4.60;99.90;;;;;;4999704;28;20413;-88
2021/01/17 00:45:20;;;;;;;14.35;8.65;;;-4.60;99.90;;;;;;4999345;28;20048;-88
2021/01/17 00:47:48;;;;;;;13.15;8.25;;;-4.70;99.90;;;;;;4999664;28;20053;-87
2021/01/17 00:50:17;;;;;;;12.90;7.68;;;-4.70;99.90;;;;;;4999838;28;20125;-88
2021/01/17 00:52:44;;;;;;;11.35;7.70;;;-4.80;99.90;;;;;;4999260;28;20083;-88
2021/01/17 00:55:11;;;;;;;10.80;6.90;;;-4.90;99.90;;;;;;4999400;28;20060;-88
2021/01/17 00:57:38;;;;;;;11.65;7.18;;;-4.90;99.90;;;;;;5016404;28;20053;-88
2021/01/17 01:00:09;;;;;;;9.85;6.97;;;-5.00;99.90;;;;;;4998786;28;20524;-88
2021/01/17 01:02:40;;;;;;;11.02;7.38;;;-5.10;99.90;;;;;;5017299;28;20046;-88
2021/01/17 01:05:08;;;;;;;12.32;7.10;;;-5.20;99.90;;;;;;5016661;28;20076;-88
2021/01/17 01:07:35;;;;;;;11.27;7.75;;;-5.30;99.90;;;;;;4998943;28;20050;-86
2021/01/17 01:10:05;;;;;;;10.77;7.50;;;-5.30;99.90;;;;;;4998887;28;20124;-86
2021/01/17 01:12:31;;;;;;;10.02;7.05;;;-5.40;99.90;;;;;;5016384;28;20041;-88
2021/01/17 01:14:57;;;;;;;11.65;8.23;;;-5.50;99.90;;;;;;4998881;28;20056;-88
2021/01/17 01:17:26;;;;;;;14.13;8.32;;;-5.70;99.90;;;;;;5016607;28;20058;-86
2021/01/17 01:19:53;;;;;;;12.82;8.00;;;-5.90;99.90;;;;;;5016368;28;20324;-86
2021/01/17 01:22:19;;;;;;;13.65;7.80;;;-5.90;99.90;;;;;;5015713;28;20108;-85
2021/01/17 01:24:45;;;;;;;11.80;8.27;;;-6.00;99.90;;;;;;5016077;28;20049;-85
2021/01/17 01:27:12;;;;;;;15.88;8.75;;;-6.00;99.90;;;;;;4998789;28;20053;-86
2021/01/17 01:29:39;;;;;;;14.40;8.75;;;-6.10;99.90;;;;;;4998926;28;20054;-85
2021/01/17 01:32:06;;;;;;;13.85;8.43;;;-6.00;99.90;;;;;;4998672;28;20137;-86
2021/01/17 01:34:32;;;;;;;14.32;8.52;;;-6.00;99.90;;;;;;5015742;28;20585;-86
2021/01/17 01:36:59;;;;;;;13.70;8.88;;;-5.90;99.90;;;;;;4998682;28;20418;-85
2021/01/17 01:39:25;;;;;;;17.08;9.73;;;-6.00;99.90;;;;;;4998374;28;20417;-86
2021/01/17 01:41:52;;;;;;;15.95;9.35;;;-6.00;99.90;;;;;;4998198;28;20057;-86
2021/01/17 01:44:19;;;;;;;15.23;9.45;;;-5.80;99.90;;;;;;4998612;28;20149;-86
2021/01/17 01:46:46;;;;;;;14.35;9.25;;;-5.70;99.90;;;;;;4998023;28;20092;-88
2021/01/17 01:49:13;;;;;;;14.23;8.73;;;-5.60;99.90;;;;;;4998676;28;20128;-88
2021/01/17 01:51:40;;;;;;;16.65;10.32;;;-5.50;99.90;;;;;;4998066;28;20058;-88
2021/01/17 01:54:09;;;;;;;14.68;8.55;;;-5.40;99.90;;;;;;5015538;28;20510;-86
2021/01/17 01:56:35;;;;;;;16.00;8.93;;;-5.30;99.90;;;;;;4998223;28;20120;-86
2021/01/17 01:59:03;;;;;;;13.57;9.02;;;-5.20;99.90;;;;;;4998279;28;20553;-86
2021/01/17 02:01:30;;;;;;;15.98;9.10;;;-5.10;99.90;;;;;;4997908;28;20116;-86
2021/01/17 02:03:56;;;;;;;13.75;7.93;;;-5.10;99.90;;;;;;5015263;28;20140;-86
2021/01/17 02:06:24;;;;;;;14.05;8.68;;;-5.00;99.90;;;;;;5015135;28;20041;-85
2021/01/17 02:09:18;;;;;;;13.20;8.95;;;-4.90;99.90;;;;;;4997843;28;20421;-86
2021/01/17 02:12:01;;;;;;;12.93;8.02;;;-4.90;99.90;;;;;;4998118;28;20137;-88
2021/01/17 02:14:52;;;;;;;12.77;7.83;;;-4.90;99.90;;;;;;4997812;28;20140;-86
2021/01/17 02:17:21;;;;;;;11.50;7.70;;;-4.90;99.90;;;;;;5014867;28;20127;-85
2021/01/17 02:20:10;;;;;;;11.90;7.80;;;-4.90;99.90;;;;;;4997815;28;20093;-86
2021/01/17 02:23:01;;;;;;;12.23;7.82;;;-4.90;99.90;;;;;;4997387;28;20100;-86
2021/01/17 02:25:35;;;;;;;13.80;8.90;;;-4.80;99.90;;;;;;5015009;28;20470;-88
2021/01/17 02:28:16;;;;;;;13.13;8.32;;;-4.80;99.90;;;;;;4997693;28;20056;-86
2021/01/17 02:30:54;;;;;;;12.45;8.15;;;-4.70;99.90;;;;;;4997601;28;20160;-86
2021/01/17 02:33:36;;;;;;;13.45;7.95;;;-4.70;99.90;;;;;;4997143;28;20544;-88
2021/01/17 02:36:14;;;;;;;11.88;7.45;;;-4.70;99.90;;;;;;5014854;28;20133;-88
2021/01/17 02:38:53;;;;;;;13.88;7.93;;;-4.70;99.90;;;;;;5014863;28;20409;-88
2021/01/17 02:41:32;;;;;;;11.27;7.30;;;-4.60;99.90;;;;;;4997692;28;20058;-88
2021/01/17 02:44:02;;;;;;;11.82;7.45;;;-4.60;99.90;;;;;;4998047;28;20140;-88
2021/01/17 02:46:29;;;;;;;11.95;6.90;;;-4.50;99.90;;;;;;4997529;28;20058;-88
2021/01/17 02:48:55;;;;;;;11.25;7.30;;;-4.50;99.90;;;;;;4997595;28;20049;-86
2021/01/17 02:51:24;;;;;;;11.85;7.65;;;-4.50;99.90;;;;;;4997384;28;20045;-86
2021/01/17 02:54:00;;;;;;;11.23;6.60;;;-4.40;99.90;;;;;;4997394;28;20498;-86
2021/01/17 02:56:31;;;;;;;10.85;7.88;;;-4.40;99.90;;;;;;4997445;28;20137;-88
2021/01/17 02:58:58;;;;;;;12.68;7.65;;;-4.40;99.90;;;;;;4997089;28;20137;-88
2021/01/17 03:01:29;;;;;;;12.70;7.90;;;-4.30;99.90;;;;;;5014290;28;20081;-88
2021/01/17 03:04:05;;;;;;;10.13;7.10;;;-4.30;99.90;;;;;;4996980;28;20486;-88
2021/01/17 03:06:31;;;;;;;12.38;7.95;;;-4.30;99.90;;;;;;4997196;28;20461;-88
2021/01/17 03:08:59;;;;;;;10.38;7.35;;;-4.30;99.90;;;;;;4996962;28;20216;-87
2021/01/17 03:11:25;;;;;;;10.20;7.32;;;-4.20;99.90;;;;;;5014315;28;20073;-87
2021/01/17 03:13:53;;;;;;;11.10;7.90;;;-4.20;99.90;;;;;;5014507;28;20406;-86
2021/01/17 03:16:19;;;;;;;10.95;7.97;;;-4.20;99.90;;;;;;4997000;28;20116;-88
2021/01/17 03:18:45;;;;;;;10.80;7.57;;;-4.20;99.90;;;;;;5014064;28;20142;-88
2021/01/17 03:21:12;;;;;;;11.23;7.88;;;-4.30;99.90;;;;;;5014004;28;20060;-88
2021/01/17 03:23:38;;;;;;;12.10;7.07;;;-4.30;99.90;;;;;;5014023;28;20109;-88
2021/01/17 03:26:04;;;;;;;10.70;7.78;;;-4.20;99.90;;;;;;4996869;28;20088;-87
2021/01/17 03:28:30;;;;;;;9.50;7.13;;;-4.20;99.90;;;;;;4996722;28;20133;-88
2021/01/17 03:30:57;;;;;;;8.80;6.78;;;-4.10;99.90;;;;;;5013742;28;20137;-87
2021/01/17 03:33:23;;;;;;;13.68;7.28;;;-4.10;99.90;;;;;;4996719;28;20077;-88
2021/01/17 03:35:49;;;;;;;10.32;7.32;;;-4.20;99.90;;;;;;5013816;28;20494;-88
2021/01/17 03:38:16;;;;;;;11.60;7.32;;;-4.30;99.90;;;;;;5013585;28;20125;-87
2021/01/17 03:40:42;;;;;;;12.50;7.38;;;-4.30;99.90;;;;;;5013720;28;20129;-88
2021/01/17 03:43:09;;;;;;;11.02;7.20;;;-4.20;99.90;;;;;;4996358;28;20577;-86
2021/01/17 03:45:35;;;;;;;10.38;6.47;;;-4.10;99.90;;;;;;4995617;28;20486;-86
2021/01/17 03:48:01;;;;;;;12.05;7.63;;;-4.10;99.90;;;;;;5013654;28;20089;-86
2021/01/17 03:50:27;;;;;;;12.32;7.40;;;-4.00;99.90;;;;;;4996421;28;20548;-85
2021/01/17 03:52:54;;;;;;;9.63;6.93;;;-4.00;99.90;;;;;;5013993;28;20134;-85
2021/01/17 03:55:20;;;;;;;10.95;7.20;;;-4.00;99.90;;;;;;5013589;28;20548;-87
2021/01/17 03:57:46;;;;;;;11.07;7.30;;;-4.00;99.90;;;;;;4996588;28;20057;-86
2021/01/17 04:00:13;;;;;;;10.00;7.07;;;-4.00;99.90;;;;;;4996458;28;20046;-86
2021/01/17 04:02:39;;;;;;;8.15;6.88;;;-4.00;99.90;;;;;;4996397;28;20049;-86
2021/01/17 04:05:07;;;;;;;10.07;6.85;;;-4.00;99.90;;;;;;4996522;28;20042;-85
2021/01/17 04:07:33;;;;;;;11.65;7.63;;;-4.00;99.90;;;;;;4996515;28;20085;-86
2021/01/17 04:09:59;;;;;;;8.65;6.82;;;-3.90;99.90;;;;;;5013390;28;20132;-86
2021/01/17 04:12:26;;;;;;;11.02;7.13;;;-3.90;99.90;;;;;;4996357;28;20132;-86
2021/01/17 04:14:53;;;;;;;9.52;6.80;;;-3.90;99.90;;;;;;4996589;28;20108;-86
2021/01/17 04:17:19;;;;;;;11.45;7.25;;;-3.80;99.90;;;;;;5013530;28;20092;-86
2021/01/17 04:19:45;;;;;;;11.35;7.35;;;-3.90;99.90;;;;;;4996270;28;20498;-86
2021/01/17 04:22:12;;;;;;;13.30;8.27;;;-3.80;99.90;;;;;;5013032;28;20054;-86
2021/01/17 04:24:38;;;;;;;10.13;7.15;;;-3.80;99.90;;;;;;5013302;28;20157;-86
2021/01/17 04:27:04;;;;;;;12.13;8.48;;;-3.90;99.90;;;;;;5013540;28;20116;-85
2021/01/17 04:29:31;;;;;;;10.98;6.88;;;-4.00;99.90;;;;;;5013285;28;20145;-86
2021/01/17 04:31:58;;;;;;;10.25;7.28;;;-4.10;99.90;;;;;;5013410;28;20042;-86
2021/01/17 04:34:25;;;;;;;9.73;6.90;;;-4.10;99.90;;;;;;4996079;28;20536;-85
2021/01/17 04:36:53;;;;;;;9.45;7.10;;;-4.00;99.90;;;;;;4996176;28;20054;-86
2021/01/17 04:39:23;;;;;;;11.75;7.50;;;-4.00;99.90;;;;;;4996621;28;20145;-86
2021/01/17 04:41:55;;;;;;;13.13;7.40;;;-4.10;99.90;;;;;;5013233;28;20500;-86
2021/01/17 04:44:28;;;;;;;11.18;8.35;;;-4.20;99.90;;;;;;4995981;28;20068;-88
2021/01/17 04:46:55;;;;;;;11.02;7.97;;;-4.10;99.90;;;;;;4995926;28;20050;-87
2021/01/17 04:49:22;;;;;;;12.68;8.23;;;-4.10;99.90;;;;;;5013141;28;20469;-88
2021/01/17 04:51:50;;;;;;;13.75;8.63;;;-4.20;99.90;;;;;;4995961;28;20085;-88
2021/01/17 04:54:17;;;;;;;11.48;7.78;;;-4.20;99.90;;;;;;4995938;28;20061;-88
2021/01/17 04:56:54;;;;;;;13.35;8.15;;;-4.20;99.90;;;;;;4996976;28;20144;-88
2021/01/17 04:59:29;;;;;;;12.70;8.07;;;-4.10;99.90;;;;;;4999501;28;20144;-87
2021/01/17 05:02:21;;;;;;;13.25;8.15;;;-4.00;99.90;;;;;;4999223;28;20128;-84
2021/01/17 05:04:52;;;;;;;15.15;8.27;;;-3.90;99.90;;;;;;5012357;28;20056;-88
2021/01/17 05:07:30;;;;;;;12.63;7.97;;;-4.00;99.90;;;;;;5016558;28;20567;-88
2021/01/17 05:10:07;;;;;;;13.38;9.35;;;-4.00;99.90;;;;;;4999153;28;20471;-88
2021/01/17 05:12:37;;;;;;;11.27;7.80;;;-3.80;99.90;;;;;;5016320;28;20121;-88
2021/01/17 05:15:06;;;;;;;10.18;7.22;;;-3.80;99.90;;;;;;4999153;28;20137;-88
2021/01/17 05:17:40;;;;;;;11.75;7.50;;;-3.80;99.90;;;;;;4999060;28;20054;-88
2021/01/17 05:20:09;;;;;;;13.65;8.68;;;-3.80;99.90;;;;;;5016272;28;20152;-88
2021/01/17 05:22:36;;;;;;;13.45;8.35;;;-3.80;99.90;;;;;;4998783;28;20054;-88
2021/01/17 05:25:07;;;;;;;9.65;7.40;;;-3.80;99.90;;;;;;4998984;28;20050;-88
2021/01/17 05:27:35;;;;;;;11.95;7.75;;;-3.80;99.90;;;;;;4998849;28;20081;-88
2021/01/17 05:30:07;;;;;;;10.13;6.90;;;-3.70;99.90;;;;;;4999182;28;20561;-87
2021/01/17 05:32:34;;;;;;;11.32;7.55;;;-3.70;99.90;;;;;;4998641;28;20068;-87
2021/01/17 05:35:01;;;;;;;11.88;7.82;;;-3.80;99.90;;;;;;5015954;28;20092;-88
2021/01/17 05:37:31;;;;;;;11.95;8.02;;;-3.80;99.90;;;;;;5016038;28;20666;-88
2021/01/17 05:40:03;;;;;;;12.32;8.27;;;-3.80;99.90;;;;;;5016310;28;20142;-87
2021/01/17 05:42:39;;;;;;;11.27;8.10;;;-3.80;99.90;;;;;;4998566;28;20053;-88
2021/01/17 05:45:16;;;;;;;11.93;7.68;;;-4.00;99.90;;;;;;4998854;28;20108;-88
2021/01/17 05:48:00;;;;;;;10.32;7.75;;;-4.10;99.90;;;;;;4998588;28;20392;-88
2021/01/17 05:50:30;;;;;;;12.68;7.80;;;-4.10;99.90;;;;;;4998509;28;20061;-88
2021/01/17 05:53:01;;;;;;;12.73;8.88;;;-4.00;99.90;;;;;;5015510;28;20140;-88
2021/01/17 05:55:39;;;;;;;12.25;8.15;;;-4.10;99.90;;;;;;4998718;28;20137;-87
2021/01/17 05:58:24;;;;;;;12.25;8.35;;;-4.10;99.90;;;;;;4998053;28;20053;-87
2021/01/17 06:00:59;;;;;;;11.70;7.70;;;-4.00;99.90;;;;;;4998180;28;20548;-87
2021/01/17 06:03:31;;;;;;;10.35;7.63;;;-4.00;99.90;;;;;;4998105;28;20569;-87
2021/01/17 06:06:00;;;;;;;13.60;8.37;;;-4.10;99.90;;;;;;4998337;28;20045;-88
2021/01/17 06:08:28;;;;;;;11.07;8.00;;;-4.20;99.90;;;;;;4996987;28;20300;-86
2021/01/17 06:11:11;;;;;;;13.27;8.32;;;-4.40;99.90;;;;;;5015315;28;20061;-86
2021/01/17 06:13:39;;;;;;;12.65;7.95;;;-4.50;99.90;;;;;;4995488;28;20132;-88
2021/01/17 06:16:32;;;;;;;13.45;8.43;;;-4.50;99.90;;;;;;4998247;28;20137;-86
2021/01/17 06:19:00;;;;;;;13.15;8.43;;;-4.60;99.90;;;;;;4997935;28;20058;-87
2021/01/17 06:21:29;;;;;;;11.27;7.93;;;-4.70;99.90;;;;;;4997612;28;20137;-87
2021/01/17 06:23:56;;;;;;;12.27;7.85;;;-4.80;99.90;;;;;;5015103;28;20409;-88
2021/01/17 06:26:33;;;;;;;12.75;8.45;;;-4.70;99.90;;;;;;4997900;28;20078;-87
2021/01/17 06:29:02;;;;;;;13.07;7.75;;;-4.80;99.90;;;;;;4994973;28;20140;-87
2021/01/17 06:31:30;;;;;;;12.27;7.82;;;-4.80;99.90;;;;;;4997518;28;20443;-87
2021/01/17 06:34:07;;;;;;;12.10;8.02;;;-4.90;99.90;;;;;;4997710;28;20046;-88
2021/01/17 06:36:39;;;;;;;12.27;7.78;;;-5.00;99.90;;;;;;4997523;28;20081;-87
2021/01/17 06:39:22;;;;;;;13.18;8.00;;;-5.20;99.90;;;;;;4997630;28;20466;-87
2021/01/17 06:41:59;;;;;;;12.70;7.60;;;-5.30;99.90;;;;;;5014836;28;20076;-87
2021/01/17 06:44:30;;;;;;;13.50;8.38;;;-5.50;99.90;;;;;;4997525;28;20478;-87
2021/01/17 06:46:57;;;;;;;12.40;7.90;;;-5.60;99.90;;;;;;4997505;28;20285;-85
2021/01/17 06:49:26;;;;;;;13.13;8.13;;;-5.80;99.90;;;;;;5014713;28;20103;-85
2021/01/17 06:51:53;;;;;;;14.15;7.65;;;-6.00;99.90;;;;;;5014751;28;20068;-86
2021/01/17 06:54:23;;;;;;;19.70;10.68;;;-6.10;99.90;;;;;;4997127;28;20509;-86
2021/01/17 06:56:51;;;;;;;16.15;9.15;;;-6.10;99.90;;;;;;4997174;28;20050;-86
2021/01/17 06:59:38;;;;;;;19.00;10.77;;;-6.20;99.90;;;;;;4997191;28;20585;-86
2021/01/17 07:02:28;;;;;;;20.60;10.75;;;-6.30;99.90;;;;;;5014691;28;20046;-85
2021/01/17 07:05:25;;;;;;;18.63;11.05;;;-6.30;99.90;;;;;;5004355;28;20046;-86
2021/01/17 07:08:04;;;;;;;19.30;12.02;;;-6.30;99.90;;;;;;4997267;28;20133;-85
2021/01/17 07:10:42;;;;;;;22.95;13.05;;;-6.40;99.90;;;;;;4997168;28;20136;-88
2021/01/17 07:13:10;;;;;;;26.35;13.13;;;-6.50;99.90;;;;;;4997154;28;20056;-86
2021/01/17 07:15:39;;;;;;;25.40;12.60;;;-6.60;99.90;;;;;;4996937;28;20046;-86
2021/01/17 07:18:09;;;;;;;23.48;13.98;;;-6.50;99.90;;;;;;5014064;28;20064;-86
2021/01/17 07:20:41;;;;;;;23.20;13.88;;;-6.60;99.90;;;;;;4996549;28;20046;-85
2021/01/17 07:23:12;;;;;;;27.45;13.60;;;-6.70;99.90;;;;;;5013961;28;20164;-85
2021/01/17 07:25:41;;;;;;;17.02;11.13;;;-6.70;99.90;;;;;;4996844;28;20457;-86
2021/01/17 07:28:21;;;;;;;17.13;9.73;;;-6.70;99.90;;;;;;4996627;28;20049;-86
2021/01/17 07:31:05;;;;;;;16.58;9.60;;;-6.70;99.90;;;;;;4996336;28;20116;-88
2021/01/17 07:33:37;;;;;;;35.88;17.92;;;-6.60;99.90;;;;;;4997843;28;20050;-86
2021/01/17 07:36:10;;;;;;;33.33;16.47;;;-6.50;99.90;;;;;;5017921;28;20498;-88
2021/01/17 07:38:43;;;;;;;29.63;16.07;;;-6.50;99.90;;;;;;5004100;28;20054;-86
2021/01/17 07:41:11;;;;;;;24.70;13.63;;;-6.60;99.90;;;;;;5004280;28;20312;-87
2021/01/17 07:43:39;;;;;;;29.15;15.90;;;-6.70;99.90;;;;;;5004772;28;20136;-88
2021/01/17 07:46:10;;;;;;;32.42;16.20;;;-6.50;99.90;;;;;;5003865;28;20111;-85
2021/01/17 07:48:37;;;;;;;29.77;16.27;;;-6.40;99.90;;;;;;4998038;28;20056;-88
2021/01/17 07:51:07;;;;;;;28.63;13.88;;;-6.20;99.90;;;;;;5021263;28;20504;-88
2021/01/17 07:53:37;;;;;;;22.60;12.90;;;-6.10;99.90;;;;;;5006667;28;20123;-86
2021/01/17 07:56:06;;;;;;;23.48;13.30;;;-5.90;99.90;;;;;;5004197;28;20096;-85
2021/01/17 07:58:36;;;;;;;27.58;14.90;;;-5.80;99.90;;;;;;5004508;28;20042;-86
2021/01/17 08:01:03;;;;;;;27.42;16.10;;;-5.60;99.90;;;;;;5006614;28;20046;-88
2021/01/17 08:03:35;;;;;;;32.63;19.75;;;-5.40;99.90;;;;;;5022109;28;20103;-87
2021/01/17 08:06:04;;;;;;;25.45;16.08;;;-5.20;99.90;;;;;;5006584;28;20068;-87
2021/01/17 08:08:34;;;;;;;19.52;12.43;;;-5.10;99.90;;;;;;5019682;28;20104;-86
2021/01/17 08:11:03;;;;;;;19.30;11.85;;;-4.90;99.90;;;;;;4995850;28;20054;-87
2021/01/17 08:13:32;;;;;;;20.25;12.68;;;-4.80;99.90;;;;;;4995100;28;20470;-86
2021/01/17 08:16:09;;;;;;;23.35;15.65;;;-4.60;99.90;;;;;;5013126;28;20148;-88
2021/01/17 08:18:37;;;;;;;26.80;16.25;;;-4.40;99.90;;;;;;4995593;28;20046;-88
2021/01/17 08:21:21;;;;;;;23.55;14.45;;;-4.20;99.90;;;;;;4995517;28;20082;-88
2021/01/17 08:24:12;;;;;;;25.50;15.25;;;-4.00;99.90;;;;;;5012564;28;20046;-87
2021/01/17 08:27:01;;;;;;;20.63;12.57;;;-3.90;99.90;;;;;;4995376;28;20085;-85
2021/01/17 08:29:28;;;;;;;23.08;15.45;;;-3.70;99.90;;;;;;5012723;28;20133;-88
2021/01/17 08:31:54;;;;;;;21.13;14.18;;;-3.70;99.90;;;;;;4997045;28;20085;-87
2021/01/17 08:34:26;;;;;;;22.02;13.77;;;-3.60;99.90;;;;;;4999180;28;20050;-88
2021/01/17 08:36:54;;;;;;;26.25;15.05;;;-3.50;99.90;;;;;;4999206;28;20077;-87
2021/01/17 08:39:44;;;;;;;19.13;11.68;;;-3.30;99.90;;;;;;4998983;28;20117;-88
2021/01/17 08:42:31;;;;;;;15.50;10.18;;;-3.30;99.90;;;;;;4998933;28;20553;-88
2021/01/17 08:44:58;;;;;;;16.77;10.02;;;-3.00;99.90;;;;;;5016242;28;20490;-87
2021/01/17 08:47:25;;;;;;;18.98;10.45;;;-2.90;99.90;;;;;;4999090;28;20128;-88
2021/01/17 08:49:52;;;;;;;16.75;10.95;;;-2.80;99.90;;;;;;4999011;28;20054;-88
2021/01/17 08:52:29;;;;;;;23.90;11.40;;;-2.60;99.90;;;;;;4999079;28;20152;-88
2021/01/17 08:54:55;;;;;;;22.75;11.15;;;-2.50;99.90;;;;;;4998906;28;20134;-88
2021/01/17 08:57:42;;;;;;;21.35;11.43;;;-2.40;99.90;;;;;;4998641;28;20141;-88
2021/01/17 09:00:11;;;;;;;19.38;10.85;;;-2.30;99.90;;;;;;4998779;28;20050;-88
2021/01/17 09:02:38;;;;;;;17.80;10.55;;;-2.10;99.90;;;;;;4998607;28;20508;-88
2021/01/17 09:05:16;;;;;;;21.60;10.52;;;-2.00;99.90;;;;;;4998722;28;20096;-88
2021/01/17 09:07:44;;;;;;;28.50;13.80;;;-1.90;99.90;;;;;;4998517;28;20049;-88
2021/01/17 09:10:14;;;;;;;33.00;16.33;;;-1.80;99.90;;;;;;4998559;28;20054;-88
2021/01/17 09:12:40;;;;;;;21.25;12.25;;;-1.80;99.90;;;;;;4998301;28;20081;-87
2021/01/17 09:15:20;;;;;;;17.10;11.20;;;-1.70;99.90;;;;;;4998510;28;20077;-88
2021/01/17 09:18:00;;;;;;;18.65;10.68;;;-1.70;99.90;;;;;;4998585;28;20417;-87
2021/01/17 09:20:28;;;;;;;16.63;10.18;;;-1.60;99.90;;;;;;4998168;28;20115;-88
2021/01/17 09:22:58;;;;;;;17.33;10.25;;;-1.70;99.90;;;;;;4997920;28;20081;-88
2021/01/17 09:25:25;;;;;;;19.50;11.30;;;-1.50;99.90;;;;;;4998389;28;20137;-88
2021/01/17 09:27:56;;;;;;;23.52;13.70;;;-1.50;99.90;;;;;;5015676;28;20172;-87
2021/01/17 09:30:24;;;;;;;20.40;12.65;;;-1.30;99.90;;;;;;4998129;28;20481;-87
2021/01/17 09:32:51;;;;;;;19.30;11.63;;;-1.20;99.90;;;;;;4997536;28;20140;-87
2021/01/17 09:35:21;;;;;;;18.42;11.38;;;-1.10;99.90;;;;;;5015533;28;20459;-87
2021/01/17 09:37:56;;;;;;;19.58;12.55;;;-1.00;99.90;;;;;;5015430;28;20046;-88
2021/01/17 09:40:22;;;;;;;32.38;16.80;;;-0.90;99.90;;;;;;5015292;28;20053;-88
2021/01/17 09:42:51;;;;;;;21.63;13.73;;;-0.80;99.90;;;;;;5014902;28;20056;-88
2021/01/17 09:45:18;;;;;;;21.33;13.00;;;-0.70;99.90;;;;;;5015416;28;20077;-87
2021/01/17 09:47:44;;;;;;;19.45;13.02;;;-0.70;99.90;;;;;;4998082;28;20112;-87
2021/01/17 09:50:11;;;;;;;19.20;12.23;;;-0.70;99.90;;;;;;5015095;28;20045;-87
2021/01/17 09:52:40;;;;;;;20.42;12.15;;;-0.90;99.90;;;;;;5015441;28;20046;-88
2021/01/17 09:55:07;;;;;;;16.90;11.43;;;-0.90;99.90;;;;;;5015181;28;20054;-87
2021/01/17 09:57:37;;;;;;;16.85;12.30;;;-0.80;99.90;;;;;;4997639;28;20077;-88
2021/01/17 10:00:16;;;;;;;16.48;10.95;;;-0.60;99.90;;;;;;5015063;28;20093;-88
2021/01/17 10:02:43;;;;;;;19.35;12.15;;;-0.80;99.90;;;;;;4997390;28;20132;-87
2021/01/17 10:05:10;;;;;;;24.33;15.52;;;-0.70;99.90;;;;;;4997682;28;20081;-89
2021/01/17 10:07:36;;;;;;;18.52;11.60;;;-0.40;99.90;;;;;;4997461;28;20128;-88
2021/01/17 10:10:10;;;;;;;27.73;16.40;;;-0.30;99.90;;;;;;5014681;28;20054;-87
2021/01/17 10:12:36;;;;;;;25.23;15.60;;;-0.20;99.90;;;;;;4997521;28;20134;-88
2021/01/17 10:15:13;;;;;;;21.88;11.95;;;0.20;99.90;;;;;;4997387;28;20128;-88
2021/01/17 10:17:47;;;;;;;20.98;11.88;;;0.50;99.90;;;;;;4997636;28;20093;-88
2021/01/17 10:20:26;;;;;;;21.20;12.23;;;0.70;99.90;;;;;;5014605;28;20094;-87
2021/01/17 10:23:03;;;;;;;19.45;12.45;;;0.90;99.90;;;;;;5014309;28;20054;-88
2021/01/17 10:25:32;;;;;;;20.45;12.20;;;1.00;99.90;;;;;;4997428;28;20248;-88
2021/01/17 10:28:00;;;;;;;16.20;11.55;;;1.00;99.90;;;;;;5014436;28;20088;-88
2021/01/17 10:30:29;;;;;;;19.90;11.10;;;1.10;99.90;;;;;;5014159;28;20085;-87
2021/01/17 10:33:01;;;;;;;18.33;11.38;;;1.10;99.90;;;;;;4996660;28;20077;-88
2021/01/17 10:35:31;;;;;;;13.90;10.23;;;1.30;99.90;;;;;;5013388;28;20054;-88
2021/01/17 10:38:01;;;;;;;15.85;10.27;;;1.50;99.90;;;;;;5014134;28;20060;-87
2021/01/17 10:40:28;;;;;;;21.50;13.18;;;1.60;99.90;;;;;;5014019;28;20057;-88
2021/01/17 10:42:57;;;;;;;16.77;11.13;;;1.80;99.90;;;;;;5014000;28;20054;-88
2021/01/17 10:45:27;;;;;;;23.00;13.80;;;1.90;99.90;;;;;;5013808;28;20053;-87
2021/01/17 10:48:03;;;;;;;20.48;14.30;;;1.60;99.90;;;;;;4996630;28;20050;-88
2021/01/17 10:50:47;;;;;;;18.02;12.27;;;1.40;99.90;;;;;;5013967;28;20137;-88
2021/01/17 10:53:33;;;;;;;17.75;11.70;;;1.60;99.90;;;;;;5013883;28;20058;-87
2021/01/17 10:56:00;;;;;;;28.25;16.42;;;1.60;99.90;;;;;;4996161;28;20524;-88
2021/01/17 10:58:45;;;;;;;18.38;11.48;;;1.60;99.90;;;;;;5013632;28;20137;-88
2021/01/17 11:01:12;;;;;;;16.90;11.20;;;1.80;99.90;;;;;;5013511;28;20056;-87
2021/01/17 11:03:43;;;;;;;20.95;11.93;;;2.00;99.90;;;;;;5013307;28;20058;-88
2021/01/17 11:06:19;;;;;;;18.17;12.40;;;2.20;99.90;;;;;;5013295;28;20560;-87
2021/01/17 11:08:47;;;;;;;19.20;12.82;;;2.20;99.90;;;;;;5013334;28;20050;-87
2021/01/17 11:11:15;;;;;;;23.27;13.57;;;2.40;99.90;;;;;;4996319;28;20038;-87
2021/01/17 11:13:42;;;;;;;21.33;13.93;;;2.60;99.90;;;;;;5013777;28;20136;-88
2021/01/17 11:16:09;;;;;;;25.98;16.10;;;2.80;99.90;;;;;;5013398;28;20406;-88
2021/01/17 11:18:36;;;;;;;25.23;15.98;;;2.90;99.90;;;;;;4996101;28;20077;-87
2021/01/17 11:21:06;;;;;;;25.95;16.00;;;3.00;99.90;;;;;;5013459;28;20128;-87
2021/01/17 11:23:33;;;;;;;25.98;18.30;;;3.00;99.90;;;;;;4995954;28;20145;-88
2021/01/17 11:26:07;;;;;;;21.95;15.00;;;3.10;99.90;;;;;;5013695;28;20100;-88
2021/01/17 11:28:33;;;;;;;22.23;14.13;;;3.00;99.90;;;;;;4993204;28;20482;-88
2021/01/17 11:31:14;;;;;;;23.20;14.52;;;2.20;99.90;;;;;;4996217;28;20060;-87
2021/01/17 11:33:41;;;;;;;21.63;14.73;;;1.90;99.90;;;;;;5013047;28;20054;-87
2021/01/17 11:36:07;;;;;;;22.38;14.25;;;1.80;99.90;;;;;;5013305;28;20176;-87
2021/01/17 11:38:47;;;;;;;19.67;12.88;;;1.80;99.90;;;;;;5013691;28;20561;-87
2021/01/17 11:41:18;;;;;;;20.42;13.85;;;1.90;99.90;;;;;;5013631;28;20137;-87
2021/01/17 11:43:45;;;;;;;22.70;13.80;;;2.10;99.90;;;;;;5013926;28;20057;-87
2021/01/17 11:46:13;;;;;;;22.98;13.88;;;2.00;99.90;;;;;;5013723;28;20050;-87
2021/01/17 11:48:41;;;;;;;42.30;22.15;;;1.50;99.90;;;;;;4995940;28;20061;-87
2021/01/17 11:51:09;;;;;;;37.50;19.95;;;1.50;99.90;;;;;;5013746;28;20054;-86
2021/01/17 11:53:36;;;;;;;149.35;43.97;;;1.80;99.90;;;;;;4996256;28;20049;-87
2021/01/17 11:56:03;;;;;;;78.10;25.10;;;1.70;99.90;;;;;;4996257;28;20054;-87
2021/01/17 11:58:39;;;;;;;42.63;18.55;;;2.00;99.90;;;;;;4995946;28;20167;-87
2021/01/17 12:01:07;;;;;;;486.02;173.57;;;2.30;99.90;;;;;;4996466;28;20177;-86
2021/01/17 12:03:41;;;;;;;856.47;321.13;;;2.20;99.90;;;;;;5013234;28;20421;-87
2021/01/17 12:06:27;;;;;;;1113.95;454.08;;;1.90;99.90;;;;;;4996704;28;20482;-87
2021/01/17 12:08:56;;;;;;;109.05;44.20;;;2.00;99.90;;;;;;4997144;28;20081;-86
2021/01/17 12:11:35;;;;;;;31.73;16.83;;;2.10;99.90;;;;;;5000100;28;20049;-86
2021/01/17 12:14:06;;;;;;;45.63;22.40;;;2.10;99.90;;;;;;5017404;28;20510;-86
2021/01/17 12:16:41;;;;;;;43.63;23.38;;;2.40;99.90;;;;;;5017243;28;20088;-86
2021/01/17 12:19:10;;;;;;;41.45;23.27;;;2.50;99.90;;;;;;5017294;28;20391;-86
2021/01/17 12:21:36;;;;;;;24.80;15.68;;;2.30;99.90;;;;;;5016652;28;20142;-86
2021/01/17 12:24:05;;;;;;;27.02;15.88;;;2.50;99.90;;;;;;4999905;28;20424;-86
2021/01/17 12:26:31;;;;;;;22.98;14.88;;;2.70;99.90;;;;;;5016982;28;20085;-85
2021/01/17 12:28:58;;;;;;;27.10;17.23;;;2.60;99.90;;;;;;4999507;28;20129;-85
2021/01/17 12:31:25;;;;;;;27.45;15.40;;;2.60;99.90;;;;;;4999383;28;20057;-85
2021/01/17 12:33:53;;;;;;;68.22;38.67;;;2.60;99.90;;;;;;4999443;28;20104;-85
2021/01/17 12:36:22;;;;;;;28.88;17.48;;;2.30;99.90;;;;;;5016543;28;20108;-85
2021/01/17 12:38:49;;;;;;;50.22;29.67;;;2.20;99.90;;;;;;4999223;28;20046;-85
2021/01/17 12:41:18;;;;;;;31.17;19.98;;;2.50;99.90;;;;;;5016389;28;20046;-84
2021/01/17 12:43:46;;;;;;;21.00;13.45;;;2.70;99.90;;;;;;5016340;28;20049;-85
2021/01/17 12:46:13;;;;;;;23.60;14.75;;;2.60;99.90;;;;;;4999135;28;20049;-84
2021/01/17 12:48:40;;;;;;;21.67;13.93;;;2.60;99.90;;;;;;5015753;28;20053;-84
2021/01/17 12:51:08;;;;;;;24.00;14.13;;;2.70;99.90;;;;;;5015897;28;20133;-84
2021/01/17 12:53:35;;;;;;;24.80;16.10;;;2.90;99.90;;;;;;4998771;28;20041;-84